Time;durP1;ratioP1;P1;durP2;ratioP2;P2;SDS_P1;SDS_P2;PMS_P1;PMS_P2;Temp;Humidity;BMP_temperature;BMP_pressure;BME280_temperature;BME280_humidity;BME280_pressure;Samples;Min_cycle;Max_cycle;Signal;HPM_P1;HPM_P2
2023/08/26 00:02:19;;;;;;;8.33;7.27;;;;;;;19.97;100.00;97631.97;5033181;28;20307;-86
2023/08/26 00:04:45;;;;;;;9.73;7.50;;;;;;;19.95;100.00;97622.44;5032965;28;20220;-84
2023/08/26 00:07:12;;;;;;;11.77;7.27;;;;;;;19.99;100.00;97626.44;5032913;28;20703;-85
2023/08/26 00:09:38;;;;;;;8.63;6.97;;;;;;;19.98;100.00;97639.00;5032874;28;20236;-85
2023/08/26 00:12:06;;;;;;;7.87;6.77;;;;;;;19.95;100.00;97642.06;5032929;28;20205;-86
2023/08/26 00:14:32;;;;;;;8.33;6.97;;;;;;;19.94;100.00;97632.31;5032319;28;20212;-85
2023/08/26 00:17:00;;;;;;;9.43;7.00;;;;;;;19.88;100.00;97641.06;5032620;28;20705;-85
2023/08/26 00:19:27;;;;;;;9.97;6.97;;;;;;;19.85;100.00;97633.38;5032614;28;20231;-86
2023/08/26 00:21:53;;;;;;;8.83;7.13;;;;;;;19.86;100.00;97635.06;5032817;28;20585;-86
2023/08/26 00:24:20;;;;;;;8.73;7.07;;;;;;;19.92;100.00;97629.00;5032866;28;20216;-85
2023/08/26 00:26:46;;;;;;;8.63;7.47;;;;;;;19.87;100.00;97625.19;5032587;28;20205;-86
2023/08/26 00:29:13;;;;;;;8.80;6.77;;;;;;;19.80;100.00;97616.97;5032082;28;20250;-84
2023/08/26 00:31:39;;;;;;;10.20;7.07;;;;;;;19.78;100.00;97616.34;5032448;28;20213;-87
2023/08/26 00:34:07;;;;;;;10.13;7.27;;;;;;;19.79;100.00;97633.25;5032772;28;20551;-87
2023/08/26 00:36:33;;;;;;;9.60;6.80;;;;;;;19.80;100.00;97641.13;5032417;28;20239;-86
2023/08/26 00:39:00;;;;;;;9.03;7.07;;;;;;;19.80;100.00;97642.97;5032434;28;20228;-86
2023/08/26 00:41:26;;;;;;;8.60;7.47;;;;;;;19.77;100.00;97630.75;5032134;28;20205;-85
2023/08/26 00:43:53;;;;;;;8.20;7.03;;;;;;;19.77;100.00;97630.75;5032190;28;20217;-86
2023/08/26 00:46:21;;;;;;;12.73;7.83;;;;;;;19.79;100.00;97627.88;5032058;28;20204;-86
2023/08/26 00:48:48;;;;;;;8.87;7.17;;;;;;;19.78;100.00;97624.38;5032041;28;20225;-85
2023/08/26 00:51:17;;;;;;;8.93;6.93;;;;;;;19.76;100.00;97622.88;5031926;28;20235;-85
2023/08/26 00:53:43;;;;;;;9.60;7.23;;;;;;;19.72;100.00;97622.41;5032222;28;20211;-85
2023/08/26 00:56:10;;;;;;;8.53;6.83;;;;;;;19.72;100.00;97618.88;5032024;28;20243;-85
2023/08/26 00:58:37;;;;;;;9.57;7.10;;;;;;;19.73;100.00;97634.78;5031879;28;20711;-85
2023/08/26 01:01:04;;;;;;;9.93;7.07;;;;;;;19.75;100.00;97642.66;5031674;28;20215;-85
2023/08/26 01:03:31;;;;;;;8.93;7.43;;;;;;;19.75;100.00;97632.75;5032200;28;20224;-85
2023/08/26 01:05:58;;;;;;;8.57;6.47;;;;;;;19.79;100.00;97643.97;5032013;28;20213;-86
2023/08/26 01:08:26;;;;;;;10.23;6.93;;;;;;;19.78;100.00;97643.16;5031887;28;20213;-86
2023/08/26 01:11:09;;;;;;;10.50;7.23;;;;;;;19.80;100.00;97665.25;5031632;28;20212;-85
2023/08/26 01:13:42;;;;;;;10.73;7.20;;;;;;;19.84;100.00;97663.06;5031848;28;20214;-85
2023/08/26 01:16:12;;;;;;;8.73;7.40;;;;;;;19.85;100.00;97660.22;5031610;28;20228;-85
2023/08/26 01:18:39;;;;;;;10.63;7.03;;;;;;;19.84;100.00;97653.19;5031643;28;20877;-85
2023/08/26 01:21:07;;;;;;;9.27;7.10;;;;;;;19.76;100.00;97655.06;5031471;28;20213;-87
2023/08/26 01:23:40;;;;;;;10.00;6.33;;;;;;;19.66;100.00;97652.59;5031769;28;20215;-85
2023/08/26 01:26:06;;;;;;;7.57;6.40;;;;;;;19.59;100.00;97665.03;5030730;28;20205;-86
2023/08/26 01:28:33;;;;;;;9.20;6.10;;;;;;;19.59;100.00;97688.28;5031552;28;20230;-86
2023/08/26 01:31:02;;;;;;;8.23;6.40;;;;;;;19.58;100.00;97679.41;5031390;28;20205;-86
2023/08/26 01:33:34;;;;;;;8.77;6.20;;;;;;;19.54;100.00;97694.19;5031456;28;20259;-85
2023/08/26 01:36:05;;;;;;;8.83;6.63;;;;;;;19.49;100.00;97693.84;5031553;28;20232;-85
2023/08/26 01:38:33;;;;;;;8.40;6.50;;;;;;;19.47;100.00;97703.94;5031348;28;20723;-85
2023/08/26 01:41:03;;;;;;;8.60;6.80;;;;;;;19.47;100.00;97711.13;5031175;28;20679;-84
2023/08/26 01:43:31;;;;;;;8.80;6.57;;;;;;;19.48;100.00;97702.91;5031426;28;20315;-85
2023/08/26 01:45:57;;;;;;;9.57;6.03;;;;;;;19.52;100.00;97701.53;5031659;28;20581;-86
2023/08/26 01:48:24;;;;;;;6.70;5.90;;;;;;;19.46;100.00;97683.50;5031115;28;20234;-84
2023/08/26 01:50:50;;;;;;;8.10;5.47;;;;;;;19.41;100.00;97676.97;5030994;28;20208;-85
2023/08/26 01:53:17;;;;;;;8.67;5.73;;;;;;;19.40;100.00;97664.56;5031197;28;20217;-84
2023/08/26 01:55:43;;;;;;;6.97;5.17;;;;;;;19.34;100.00;97655.38;5031377;28;20315;-84
2023/08/26 01:58:11;;;;;;;9.20;5.73;;;;;;;19.27;100.00;97665.09;5031170;28;20288;-85
2023/08/26 02:00:37;;;;;;;7.67;5.30;;;;;;;19.21;100.00;97670.31;5030965;28;20211;-84
2023/08/26 02:03:04;;;;;;;7.23;5.40;;;;;;;19.19;100.00;97672.31;5031235;28;20217;-85
2023/08/26 02:05:31;;;;;;;7.60;5.77;;;;;;;19.16;100.00;97676.16;5031217;28;20235;-85
2023/08/26 02:07:57;;;;;;;9.53;5.90;;;;;;;19.16;100.00;97678.84;5031448;28;20218;-85
2023/08/26 02:10:24;;;;;;;5.97;4.73;;;;;;;19.07;100.00;97677.16;5030807;28;20236;-85
2023/08/26 02:12:50;;;;;;;8.77;5.07;;;;;;;19.04;100.00;97682.88;5031307;28;20204;-84
2023/08/26 02:15:18;;;;;;;8.43;5.67;;;;;;;19.08;100.00;97689.53;5031210;28;20215;-85
2023/08/26 02:17:45;;;;;;;8.13;5.73;;;;;;;19.03;100.00;97683.84;5031091;28;20207;-85
2023/08/26 02:20:11;;;;;;;8.10;5.50;;;;;;;18.99;100.00;97685.22;5030749;28;20232;-85
2023/08/26 02:22:38;;;;;;;8.57;5.40;;;;;;;18.99;100.00;97685.22;5031202;28;20205;-85
2023/08/26 02:25:05;;;;;;;6.50;5.57;;;;;;;19.00;100.00;97686.88;5031128;28;20225;-85
2023/08/26 02:27:32;;;;;;;10.17;6.00;;;;;;;19.00;100.00;97688.72;5031022;28;20384;-85
2023/08/26 02:29:58;;;;;;;8.23;6.03;;;;;;;19.02;100.00;97692.06;5030652;28;20247;-85
2023/08/26 02:32:26;;;;;;;8.00;5.80;;;;;;;19.02;100.00;97692.91;5030940;28;20209;-85
2023/08/26 02:34:53;;;;;;;8.67;6.13;;;;;;;19.01;100.00;97691.22;5031371;28;20220;-84
2023/08/26 02:37:19;;;;;;;6.90;5.87;;;;;;;18.98;100.00;97702.28;5033541;28;20239;-86
2023/08/26 02:39:46;;;;;;;6.80;5.70;;;;;;;18.99;100.00;97695.06;5034351;28;20860;-85
2023/08/26 02:42:12;;;;;;;8.37;5.40;;;;;;;18.98;100.00;97694.25;5034689;28;20586;-85
2023/08/26 02:44:39;;;;;;;7.87;5.53;;;;;;;18.98;100.00;97691.59;5034691;28;20212;-85
2023/08/26 02:47:05;;;;;;;8.20;5.60;;;;;;;18.94;100.00;97682.19;5034559;28;20201;-85
2023/08/26 02:49:33;;;;;;;9.00;5.57;;;;;;;18.88;100.00;97690.91;5034339;28;20228;-86
2023/08/26 02:51:59;;;;;;;7.80;5.60;;;;;;;18.84;100.00;97683.38;5034571;28;20209;-86
2023/08/26 02:54:26;;;;;;;8.23;5.20;;;;;;;18.78;100.00;97692.91;5034297;28;20210;-84
2023/08/26 02:56:52;;;;;;;7.60;4.97;;;;;;;18.75;100.00;97695.94;5034347;28;20236;-86
2023/08/26 02:59:19;;;;;;;6.70;4.83;;;;;;;18.75;100.00;97690.56;5035592;28;20241;-85
2023/08/26 03:01:45;;;;;;;9.63;5.80;;;;;;;18.73;100.00;97692.59;5044379;28;20211;-83
2023/08/26 03:04:13;;;;;;;6.17;4.83;;;;;;;18.74;100.00;97698.78;5043702;28;20209;-82
2023/08/26 03:06:41;;;;;;;6.33;4.70;;;;;;;18.70;100.00;97703.63;5042273;28;20675;-86
2023/08/26 03:09:07;;;;;;;7.67;5.00;;;;;;;18.68;100.00;97700.28;5034275;28;20228;-86
2023/08/26 03:11:34;;;;;;;8.57;5.20;;;;;;;18.69;100.00;97699.28;5034513;28;20208;-86
2023/08/26 03:14:00;;;;;;;10.00;5.80;;;;;;;18.69;100.00;97695.75;5034710;28;20214;-84
2023/08/26 03:16:27;;;;;;;7.77;5.10;;;;;;;18.76;100.00;97708.31;5034312;28;20663;-86
2023/08/26 03:18:53;;;;;;;8.70;5.13;;;;;;;18.79;100.00;97713.34;5033927;28;20233;-84
2023/08/26 03:21:20;;;;;;;9.13;5.60;;;;;;;18.77;100.00;97704.63;5033713;28;20213;-85
2023/08/26 03:23:48;;;;;;;7.60;5.10;;;;;;;18.77;100.00;97709.97;5033911;28;20216;-86
2023/08/26 03:26:14;;;;;;;8.10;5.47;;;;;;;18.81;100.00;97722.03;5033845;28;20211;-85
2023/08/26 03:31:08;;;;;;;8.00;5.53;;;;;;;18.78;100.00;97714.31;5010913;28;20685;-78
2023/08/26 03:33:35;;;;;;;6.67;5.00;;;;;;;18.72;100.00;97712.31;5013560;28;20209;-78
2023/08/26 03:36:04;;;;;;;8.47;5.40;;;;;;;18.68;100.00;97710.13;5013377;28;20240;-78
2023/08/26 03:38:30;;;;;;;8.37;5.03;;;;;;;18.65;100.00;97700.59;5013482;28;20205;-78
2023/08/26 03:40:58;;;;;;;6.67;4.87;;;;;;;18.62;100.00;97708.97;4993689;28;20222;-78
2023/08/26 03:43:24;;;;;;;6.90;5.13;;;;;;;18.56;100.00;97698.94;4993878;28;20249;-77
2023/08/26 03:45:51;;;;;;;8.80;5.53;;;;;;;18.50;100.00;97690.72;4994039;28;20216;-78
2023/08/26 03:48:17;;;;;;;6.80;5.17;;;;;;;18.47;100.00;97696.41;4993048;28;20210;-78
2023/08/26 03:50:50;;;;;;;7.23;5.10;;;;;;;18.44;100.00;97700.25;4993515;28;20241;-78
2023/08/26 03:53:17;;;;;;;7.70;5.23;;;;;;;18.38;100.00;97708.94;4993496;28;20206;-78
2023/08/26 03:55:44;;;;;;;8.37;4.77;;;;;;;18.36;100.00;97712.78;4993547;28;20206;-77
2023/08/26 03:58:12;;;;;;;7.60;5.07;;;;;;;18.33;100.00;97713.94;4993714;28;20214;-78
2023/08/26 04:00:39;;;;;;;7.30;5.17;;;;;;;18.31;100.00;97715.97;4993474;28;20226;-78
2023/08/26 04:03:06;;;;;;;5.47;4.53;;;;;;;18.27;100.00;97717.25;4993572;28;20619;-78
2023/08/26 04:05:32;;;;;;;8.00;5.07;;;;;;;18.25;100.00;97719.25;4993385;28;20218;-78
2023/08/26 04:08:00;;;;;;;6.73;5.10;;;;;;;18.25;100.00;97729.97;4993339;28;20206;-78
2023/08/26 04:10:27;;;;;;;7.73;5.27;;;;;;;18.23;100.00;97742.63;4992797;28;20226;-77
2023/08/26 04:12:53;;;;;;;7.43;5.30;;;;;;;18.31;100.00;97745.38;4993522;28;20214;-78
2023/08/26 04:15:21;;;;;;;10.53;6.20;;;;;;;18.41;100.00;97734.53;4993184;28;20214;-78
2023/08/26 04:17:47;;;;;;;9.37;6.27;;;;;;;18.49;100.00;97745.25;4993294;28;20234;-77
2023/08/26 04:20:14;;;;;;;9.70;6.53;;;;;;;18.56;100.00;97739.09;4992879;28;20233;-78
2023/08/26 04:22:40;;;;;;;8.33;6.33;;;;;;;18.58;100.00;97745.09;4993030;28;20217;-78
2023/08/26 04:25:07;;;;;;;11.37;7.13;;;;;;;18.66;100.00;97755.81;4992795;28;20231;-78
2023/08/26 04:27:34;;;;;;;10.60;6.53;;;;;;;18.69;100.00;97744.78;4992985;28;20210;-78
2023/08/26 04:30:00;;;;;;;9.27;6.93;;;;;;;18.71;100.00;97747.31;4992550;28;20621;-78
2023/08/26 04:32:28;;;;;;;10.23;7.30;;;;;;;18.70;100.00;97746.47;4992946;28;20218;-78
2023/08/26 04:34:55;;;;;;;8.90;6.47;;;;;;;18.68;100.00;97747.63;4992827;28;20206;-78
2023/08/26 04:37:22;;;;;;;11.23;7.23;;;;;;;18.67;100.00;97741.44;4992747;28;20324;-77
2023/08/26 04:39:50;;;;;;;9.93;7.10;;;;;;;18.61;100.00;97762.66;4992485;28;20322;-77
2023/08/26 04:42:18;;;;;;;8.93;6.70;;;;;;;18.49;100.00;97764.84;4993126;28;20233;-78
2023/08/26 04:44:45;;;;;;;7.80;6.63;;;;;;;18.41;100.00;97767.47;4992924;28;20210;-78
2023/08/26 04:47:12;;;;;;;8.80;6.43;;;;;;;18.32;100.00;97773.81;4992768;28;20212;-78
2023/08/26 04:49:39;;;;;;;10.73;6.60;;;;;;;18.31;100.00;97771.28;4992488;28;20233;-78
2023/08/26 04:52:06;;;;;;;10.27;7.23;;;;;;;18.27;100.00;97784.13;4992579;28;20214;-78
2023/08/26 04:54:34;;;;;;;11.63;7.23;;;;;;;18.31;100.00;97788.19;4992586;28;20210;-78
2023/08/26 04:57:00;;;;;;;12.30;7.97;;;;;;;18.33;100.00;97791.53;4992471;28;20240;-78
2023/08/26 04:59:27;;;;;;;10.73;7.87;;;;;;;18.35;100.00;97786.84;4992004;28;20241;-78
2023/08/26 05:01:53;;;;;;;10.97;7.53;;;;;;;18.38;100.00;97783.88;4992425;28;20218;-78
2023/08/26 05:04:20;;;;;;;11.63;7.83;;;;;;;18.36;100.00;97790.38;4992895;28;20221;-78
2023/08/26 05:06:48;;;;;;;10.60;8.13;;;;;;;18.29;100.00;97792.81;4992400;28;20210;-77
2023/08/26 05:09:14;;;;;;;11.67;7.73;;;;;;;18.20;100.00;97796.47;4991901;28;20553;-77
2023/08/26 05:11:40;;;;;;;9.30;7.07;;;;;;;18.13;100.00;97800.78;4992365;28;20206;-77
2023/08/26 05:14:07;;;;;;;11.83;7.80;;;;;;;18.11;100.00;97797.41;4992317;28;20589;-77
2023/08/26 05:16:33;;;;;;;9.57;7.27;;;;;;;18.10;100.00;97801.09;4992224;28;20604;-78
2023/08/26 05:19:00;;;;;;;10.00;6.80;;;;;;;18.06;100.00;97799.78;4991902;28;20233;-77
2023/08/26 05:21:26;;;;;;;11.53;7.80;;;;;;;18.06;100.00;97805.13;4992139;28;20210;-78
2023/08/26 05:23:54;;;;;;;10.53;7.60;;;;;;;18.03;100.00;97816.13;4992192;28;20214;-78
2023/08/26 05:26:20;;;;;;;10.70;7.57;;;;;;;18.02;100.00;97813.59;4992037;28;20669;-77
2023/08/26 05:28:47;;;;;;;10.30;7.00;;;;;;;18.05;100.00;97807.94;4991711;28;20229;-78
2023/08/26 05:31:13;;;;;;;10.30;7.37;;;;;;;18.07;100.00;97812.13;4992010;28;20596;-78
2023/08/26 05:33:40;;;;;;;9.90;7.40;;;;;;;18.11;100.00;97804.63;4991812;28;20237;-78
2023/08/26 05:36:06;;;;;;;10.77;7.80;;;;;;;18.15;100.00;97804.13;4992193;28;20205;-78
2023/08/26 05:38:33;;;;;;;9.43;7.43;;;;;;;18.14;100.00;97802.47;4991831;28;20253;-78
2023/08/26 05:41:01;;;;;;;10.10;7.10;;;;;;;18.13;100.00;97810.66;4991753;28;20214;-78
2023/08/26 05:43:29;;;;;;;9.23;6.77;;;;;;;18.06;100.00;97796.25;4991655;28;20209;-78
2023/08/26 05:45:56;;;;;;;12.10;7.77;;;;;;;18.06;100.00;97794.41;4991768;28;20649;-78
2023/08/26 05:48:23;;;;;;;8.17;6.23;;;;;;;18.11;100.00;97796.59;4991616;28;20210;-77
2023/08/26 05:50:49;;;;;;;12.93;7.50;;;;;;;18.12;100.00;97791.09;4991520;28;20234;-77
2023/08/26 05:53:16;;;;;;;11.37;7.47;;;;;;;18.16;100.00;97799.63;4991907;28;20210;-77
2023/08/26 05:55:43;;;;;;;9.10;6.73;;;;;;;18.23;100.00;97809.50;4991567;28;20210;-78
2023/08/26 05:58:11;;;;;;;11.37;7.37;;;;;;;18.36;100.00;97809.94;4991732;28;20284;-77
2023/08/26 06:00:37;;;;;;;10.90;7.47;;;;;;;18.49;100.00;97810.34;4991258;28;20237;-78
2023/08/26 06:03:04;;;;;;;9.87;7.03;;;;;;;18.58;100.00;97821.88;4991468;28;20601;-78
2023/08/26 06:05:31;;;;;;;8.83;6.70;;;;;;;18.64;100.00;97824.75;4991561;28;20221;-77
2023/08/26 06:07:57;;;;;;;8.50;6.60;;;;;;;18.63;100.00;97828.44;4991835;28;20218;-78
2023/08/26 06:10:24;;;;;;;9.40;6.30;;;;;;;18.66;100.00;97833.44;4991209;28;20244;-78
2023/08/26 06:12:50;;;;;;;9.27;6.97;;;;;;;18.69;100.00;97825.09;4995081;28;20270;-78
2023/08/26 06:15:18;;;;;;;11.40;7.20;;;;;;;18.75;100.00;97829.81;4995451;28;20210;-78
2023/08/26 06:17:45;;;;;;;10.93;7.13;;;;;;;18.84;100.00;97823.44;4995435;28;20230;-78
2023/08/26 06:20:12;;;;;;;9.57;6.80;;;;;;;18.99;100.00;97827.16;4995299;28;20450;-78
2023/08/26 06:22:39;;;;;;;9.17;6.50;;;;;;;19.13;100.00;97826.50;4995357;28;20212;-78
2023/08/26 06:25:06;;;;;;;8.57;6.53;;;;;;;19.14;100.00;97825.50;4995308;28;20280;-78
2023/08/26 06:27:32;;;;;;;8.70;6.60;;;;;;;19.09;100.00;97835.88;4995137;28;20213;-78
2023/08/26 06:30:02;;;;;;;7.97;5.33;;;;;;;19.19;100.00;97841.09;4994730;28;20239;-78
2023/08/26 06:32:30;;;;;;;7.47;5.57;;;;;;;19.07;100.00;97859.31;4994985;28;20215;-78
2023/08/26 06:34:57;;;;;;;7.53;5.23;;;;;;;19.21;100.00;97872.09;4995262;28;20290;-78
2023/08/26 06:37:23;;;;;;;7.33;5.93;;;;;;;19.43;100.00;97866.09;4995084;28;20240;-80
2023/08/26 06:39:50;;;;;;;9.77;5.93;;;;;;;19.53;100.00;97864.09;4994750;28;20600;-83
2023/08/26 06:42:16;;;;;;;7.37;5.67;;;;;;;19.63;100.00;97864.72;4995001;28;20224;-84
2023/08/26 06:44:43;;;;;;;8.43;5.90;;;;;;;19.73;100.00;97865.41;4995254;28;20206;-81
2023/08/26 06:47:10;;;;;;;7.00;4.93;;;;;;;19.77;100.00;97877.47;4995286;28;20202;-85
2023/08/26 06:49:38;;;;;;;7.53;4.83;;;;;;;19.82;100.00;97882.31;4994354;28;20241;-86
2023/08/26 06:52:05;;;;;;;5.73;4.90;;;;;;;19.95;100.00;97879.97;4994928;28;20216;-93
2023/08/26 06:54:34;;;;;;;6.17;4.67;;;;;;;20.11;100.00;97875.41;4994773;28;20214;-83
2023/08/26 06:57:00;;;;;;;9.00;5.53;;;;;;;20.22;100.00;97882.25;4994676;28;20210;-84
2023/08/26 06:59:27;;;;;;;6.53;5.00;;;;;;;20.36;100.00;97886.94;4994438;28;20717;-84
2023/08/26 07:01:53;;;;;;;7.57;5.23;;;;;;;20.61;100.00;97889.34;4994797;28;20301;-84
2023/08/26 07:04:20;;;;;;;6.13;5.20;;;;;;;20.82;100.00;97878.00;4994584;28;20587;-84
2023/08/26 07:06:50;;;;;;;7.43;4.63;;;;;;;20.88;100.00;97867.44;4994699;28;20215;-85
2023/08/26 07:09:16;;;;;;;7.20;4.57;;;;;;;20.99;100.00;97872.41;4994125;28;20226;-84
2023/08/26 07:11:43;;;;;;;4.90;4.40;;;;;;;21.21;100.00;97870.78;4994570;28;20216;-84
2023/08/26 07:14:09;;;;;;;6.23;4.57;;;;;;;21.35;100.00;97865.47;4994346;28;20209;-84
2023/08/26 07:16:36;;;;;;;5.17;3.80;;;;;;;21.43;100.00;97876.16;4994386;28;20206;-84
2023/08/26 07:19:02;;;;;;;5.77;4.07;;;;;;;21.52;100.00;97875.06;4994146;28;20238;-84
2023/08/26 07:21:29;;;;;;;5.53;4.33;;;;;;;21.53;100.00;97876.72;4994104;28;20642;-84
2023/08/26 07:23:57;;;;;;;4.97;4.30;;;;;;;21.64;100.00;97875.47;4992949;28;20221;-85
2023/08/26 07:26:24;;;;;;;5.17;4.20;;;;;;;21.70;100.00;97883.69;4994145;28;20213;-84
2023/08/26 07:28:51;;;;;;;5.27;3.43;;;;;;;21.77;100.00;97884.63;4994198;28;20210;-82
2023/08/26 07:31:18;;;;;;;5.07;3.50;;;;;;;21.73;100.00;97883.34;4993986;28;20213;-82
2023/08/26 07:33:44;;;;;;;5.83;4.07;;;;;;;21.72;100.00;97870.91;4994099;28;20206;-82
2023/08/26 07:36:11;;;;;;;5.50;3.83;;;;;;;21.68;100.00;97880.34;4993875;28;20225;-80
2023/08/26 07:38:38;;;;;;;5.20;3.77;;;;;;;21.64;100.00;97878.16;4993806;28;20233;-86
2023/08/26 07:41:06;;;;;;;4.70;4.10;;;;;;;21.77;100.00;97883.81;4993968;28;20210;-85
2023/08/26 07:43:33;;;;;;;6.03;3.90;;;;;;;21.94;100.00;97885.34;4994139;28;20523;-89
2023/08/26 07:46:00;;;;;;;4.83;3.73;;;;;;;22.12;100.00;97875.88;4993926;28;20216;-83
2023/08/26 07:48:26;;;;;;;4.43;4.00;;;;;;;22.04;100.00;97859.81;4991530;28;20209;-84
2023/08/26 07:50:53;;;;;;;5.90;4.37;;;;;;;21.91;100.00;97864.16;4992437;28;20234;-83
2023/08/26 07:53:19;;;;;;;6.00;4.17;;;;;;;21.81;100.00;97853.66;4992860;28;20217;-82
2023/08/26 07:55:46;;;;;;;5.13;3.77;;;;;;;21.78;100.00;97840.59;4993856;28;20305;-81
2023/08/26 07:58:14;;;;;;;6.57;4.10;;;;;;;21.87;100.00;97842.16;4993741;28;20234;-82
2023/08/26 08:00:40;;;;;;;6.13;3.60;;;;;;;22.06;100.00;97840.81;4992666;28;20327;-76
2023/08/26 08:03:07;;;;;;;5.13;4.10;;;;;;;22.00;100.00;97825.41;4992473;28;20210;-76
2023/08/26 08:05:33;;;;;;;4.80;3.60;;;;;;;22.05;100.00;97829.19;4993348;28;20688;-76
2023/08/26 08:08:00;;;;;;;4.63;3.67;;;;;;;21.99;100.00;97832.63;4993333;28;20206;-86
2023/08/26 08:10:26;;;;;;;5.33;3.50;;;;;;;22.04;100.00;97843.69;4992945;28;20233;-83
2023/08/26 08:12:53;;;;;;;4.87;4.10;;;;;;;22.06;100.00;97851.56;4993316;28;20210;-83
2023/08/26 08:15:20;;;;;;;4.40;3.57;;;;;;;21.96;100.00;97846.47;4993345;28;20210;-80
2023/08/26 08:17:47;;;;;;;5.17;4.13;;;;;;;21.91;100.00;97858.78;4993132;28;20229;-81
2023/08/26 08:20:13;;;;;;;5.50;4.07;;;;;;;21.84;100.00;97861.38;4992735;28;20236;-83
2023/08/26 08:22:43;;;;;;;5.63;3.67;;;;;;;21.91;100.00;97859.63;4992960;28;20206;-82
2023/08/26 08:25:11;;;;;;;4.67;3.90;;;;;;;21.79;100.00;97863.78;4992948;28;20217;-82
2023/08/26 08:27:38;;;;;;;5.00;3.97;;;;;;;21.75;100.00;97865.16;4993265;28;20206;-81
2023/08/26 08:30:07;;;;;;;5.90;4.20;;;;;;;21.63;100.00;97853.13;4992404;28;20321;-81
2023/08/26 08:32:35;;;;;;;5.10;4.17;;;;;;;21.45;100.00;97852.59;4992734;28;20350;-82
2023/08/26 08:35:03;;;;;;;4.50;3.90;;;;;;;21.41;100.00;97878.19;4992235;28;20218;-81
2023/08/26 08:37:29;;;;;;;5.10;4.07;;;;;;;21.39;100.00;97869.44;4992805;28;20214;-81
2023/08/26 08:39:56;;;;;;;5.57;4.00;;;;;;;21.55;100.00;97847.81;4992439;28;20240;-82
2023/08/26 08:42:23;;;;;;;4.80;3.57;;;;;;;21.72;100.00;97844.00;4992825;28;20544;-81
2023/08/26 08:44:50;;;;;;;5.03;3.63;;;;;;;21.88;100.00;97859.16;4992807;28;20213;-82
2023/08/26 08:47:16;;;;;;;4.07;3.67;;;;;;;22.13;100.00;97845.25;4993124;28;20636;-81
2023/08/26 08:49:45;;;;;;;6.43;4.30;;;;;;;22.37;98.08;97839.59;4992249;28;20739;-81
2023/08/26 08:52:12;;;;;;;5.03;4.20;;;;;;;22.61;97.52;97842.00;4992618;28;20210;-80
2023/08/26 08:54:39;;;;;;;4.80;4.07;;;;;;;22.93;98.09;97846.16;4992429;28;20209;-80
2023/08/26 08:57:08;;;;;;;7.13;5.10;;;;;;;23.20;91.84;97837.34;4991894;28;20230;-83
2023/08/26 08:59:37;;;;;;;4.00;3.60;;;;;;;23.23;91.86;97840.47;4991981;28;20238;-86
2023/08/26 09:02:05;;;;;;;6.17;4.50;;;;;;;23.17;92.38;97852.03;4992340;28;20601;-85
2023/08/26 09:04:33;;;;;;;3.97;3.57;;;;;;;22.92;94.87;97856.06;4992439;28;20198;-85
2023/08/26 09:07:03;;;;;;;6.03;4.00;;;;;;;22.84;97.78;97853.50;4992446;28;20233;-84
2023/08/26 09:09:29;;;;;;;6.27;4.30;;;;;;;23.07;93.75;97848.81;4992297;28;20230;-84
2023/08/26 09:11:56;;;;;;;5.53;4.10;;;;;;;22.98;93.40;97849.94;4992118;28;20621;-85
2023/08/26 09:14:24;;;;;;;5.17;3.57;;;;;;;22.91;90.01;97835.53;4992124;28;20297;-84
2023/08/26 09:16:50;;;;;;;5.40;3.80;;;;;;;22.89;91.65;97840.31;4992022;28;20210;-83
2023/08/26 09:19:17;;;;;;;6.50;4.17;;;;;;;22.82;90.90;97828.63;4991471;28;20230;-83
2023/08/26 09:21:44;;;;;;;6.37;3.67;;;;;;;22.78;90.93;97838.09;4991962;28;20213;-83
2023/08/26 09:24:13;;;;;;;4.17;3.43;;;;;;;22.74;89.07;97830.56;4992185;28;20615;-83
2023/08/26 09:26:40;;;;;;;4.73;3.57;;;;;;;22.50;89.69;97831.72;4991759;28;20210;-83
2023/08/26 09:31:46;;;;;;;5.60;3.53;;;;;;;21.98;91.60;97839.03;5010562;28;20256;-88
2023/08/26 09:34:12;;;;;;;7.83;3.73;;;;;;;21.80;92.69;97848.44;5012439;28;20300;-85
2023/08/26 09:36:40;;;;;;;5.57;4.27;;;;;;;21.62;93.19;97848.75;5012162;28;20243;-86
2023/08/26 09:39:14;;;;;;;6.20;3.47;;;;;;;21.44;95.66;97856.31;5011951;28;20229;-86
2023/08/26 09:41:42;;;;;;;5.57;3.50;;;;;;;21.34;97.91;97863.75;5012138;28;20223;-86
2023/08/26 09:44:09;;;;;;;6.57;4.10;;;;;;;21.26;99.03;97865.66;5012805;28;20213;-87
2023/08/26 09:46:36;;;;;;;4.27;3.73;;;;;;;21.22;99.90;97861.69;5011539;28;20220;-86
2023/08/26 09:49:03;;;;;;;5.30;3.60;;;;;;;21.22;99.72;97859.81;5012627;28;20219;-86
2023/08/26 09:51:31;;;;;;;5.10;3.57;;;;;;;21.17;100.00;97856.84;5012148;28;20562;-86
2023/08/26 09:53:58;;;;;;;7.23;4.33;;;;;;;21.13;100.00;97866.28;5012765;28;20213;-78
2023/08/26 09:56:27;;;;;;;3.93;3.50;;;;;;;21.19;100.00;97852.13;5012286;28;20319;-77
2023/08/26 09:58:55;;;;;;;3.53;3.20;;;;;;;21.34;94.58;97817.25;5012224;28;20229;-77
2023/08/26 10:01:23;;;;;;;4.50;3.50;;;;;;;21.44;93.56;97823.19;5011756;28;20625;-78
2023/08/26 10:03:52;;;;;;;3.83;3.20;;;;;;;21.62;91.97;97808.41;5012116;28;20652;-78
2023/08/26 10:06:22;;;;;;;4.30;3.37;;;;;;;21.79;92.01;97807.28;5012059;28;20212;-77
2023/08/26 10:08:55;;;;;;;4.77;3.10;;;;;;;21.95;90.34;97801.69;5011869;28;20210;-77
2023/08/26 10:11:22;;;;;;;5.03;3.80;;;;;;;21.99;89.76;97797.63;5011657;28;20228;-79
2023/08/26 10:13:54;;;;;;;5.10;3.03;;;;;;;22.02;87.73;97797.28;5011839;28;20216;-78
2023/08/26 10:16:23;;;;;;;4.93;3.60;;;;;;;21.91;86.04;97803.13;5011792;28;20318;-78
2023/08/26 10:18:54;;;;;;;4.23;3.30;;;;;;;22.11;85.59;97812.31;5011323;28;20229;-77
2023/08/26 10:21:22;;;;;;;4.30;3.07;;;;;;;22.14;85.77;97811.91;5011077;28;20248;-77
2023/08/26 10:23:49;;;;;;;3.90;3.20;;;;;;;22.24;83.63;97799.03;5011587;28;20605;-77
2023/08/26 10:26:17;;;;;;;3.33;2.47;;;;;;;22.31;79.89;97788.34;5011470;28;20205;-77
2023/08/26 10:28:44;;;;;;;2.93;2.63;;;;;;;22.27;79.53;97784.34;5011280;28;20209;-77
2023/08/26 10:31:14;;;;;;;4.77;3.07;;;;;;;22.31;80.38;97797.25;5010673;28;20324;-77
2023/08/26 10:34:12;;;;;;;3.53;3.23;;;;;;;22.27;78.48;97785.19;5011040;28;20213;-77
2023/08/26 10:36:41;;;;;;;4.63;3.30;;;;;;;22.20;79.21;97789.63;5010754;28;20216;-77
2023/08/26 10:39:14;;;;;;;5.20;3.20;;;;;;;22.40;78.67;97796.13;5010958;28;20225;-78
2023/08/26 10:41:41;;;;;;;3.43;2.70;;;;;;;22.41;78.60;97797.81;5011110;28;20209;-78
2023/08/26 10:44:07;;;;;;;4.13;2.90;;;;;;;22.50;77.48;97785.09;5011055;28;20215;-78
2023/08/26 10:46:37;;;;;;;3.30;2.30;;;;;;;22.42;78.66;97794.09;5011165;28;20216;-78
2023/08/26 10:49:05;;;;;;;3.13;2.80;;;;;;;22.40;79.88;97801.53;5011337;28;20209;-78
2023/08/26 10:51:31;;;;;;;5.53;3.13;;;;;;;22.35;79.74;97805.78;5010931;28;20209;-78
2023/08/26 10:54:03;;;;;;;5.03;2.80;;;;;;;22.24;79.54;97812.47;5011259;28;20276;-78
2023/08/26 10:56:33;;;;;;;3.13;2.67;;;;;;;22.10;82.36;97823.25;5010881;28;20214;-78
2023/08/26 10:59:02;;;;;;;2.93;2.63;;;;;;;22.10;82.50;97821.41;5014077;28;20236;-77
2023/08/26 11:01:34;;;;;;;5.23;2.80;;;;;;;22.13;84.10;97830.97;5014372;28;20312;-77
2023/08/26 11:04:02;;;;;;;3.73;3.03;;;;;;;22.05;83.28;97822.97;5014190;28;20263;-78
2023/08/26 11:06:28;;;;;;;3.30;2.13;;;;;;;22.03;81.22;97804.31;5014382;28;20213;-78
2023/08/26 11:08:56;;;;;;;4.17;2.63;;;;;;;22.22;79.12;97798.38;5014377;28;20201;-78
2023/08/26 11:11:22;;;;;;;2.93;2.53;;;;;;;22.39;78.12;97788.25;5013999;28;20212;-81
2023/08/26 11:13:49;;;;;;;4.60;2.50;;;;;;;22.61;76.44;97771.16;5014444;28;20217;-81
2023/08/26 11:16:16;;;;;;;3.17;2.40;;;;;;;22.67;75.47;97768.53;5014593;28;20235;-81
2023/08/26 11:18:43;;;;;;;4.97;2.97;;;;;;;22.74;75.48;97776.69;5014022;28;20248;-82
2023/08/26 11:21:13;;;;;;;3.60;2.80;;;;;;;22.74;73.52;97761.34;5014133;28;20243;-82
2023/08/26 11:23:41;;;;;;;4.40;2.80;;;;;;;22.56;75.50;97773.56;5014317;28;20240;-82
2023/08/26 11:26:08;;;;;;;3.50;2.80;;;;;;;22.49;76.91;97773.47;5014345;28;20559;-82
2023/08/26 11:28:35;;;;;;;5.30;2.80;;;;;;;22.31;77.67;97770.31;5014390;28;20217;-82
2023/08/26 11:31:02;;;;;;;3.50;2.80;;;;;;;22.05;81.50;97786.13;5013774;28;20237;-78
2023/08/26 11:33:29;;;;;;;5.60;3.07;;;;;;;22.03;81.69;97781.94;5014298;28;20213;-80